createdAt,value
2018-12-30T00:00:23.037Z,7.52
2018-12-30T00:03:38.731Z,7.57
2018-12-30T00:06:53.989Z,7.62
2018-12-30T00:10:09.390Z,7.53
2018-12-30T00:13:24.706Z,7.55
2018-12-30T00:16:40.097Z,7.54
2018-12-30T00:19:54.526Z,7.54
2018-12-30T00:23:17.255Z,7.54
2018-12-30T00:26:32.422Z,7.53
2018-12-30T00:29:47.650Z,7.55
2018-12-30T00:33:02.889Z,7.54
2018-12-30T00:36:18.453Z,7.56
2018-12-30T00:39:33.456Z,7.56
2018-12-30T00:42:48.669Z,7.55
2018-12-30T00:46:02.102Z,7.56
2018-12-30T00:49:24.785Z,7.55
2018-12-30T00:52:40.230Z,7.57
2018-12-30T00:55:53.906Z,7.52
2018-12-30T00:59:16.247Z,7.54
2018-12-30T01:02:31.499Z,7.58
2018-12-30T01:05:46.912Z,7.53
2018-12-30T01:09:02.361Z,7.53
2018-12-30T01:12:16.072Z,7.51
2018-12-30T01:15:38.417Z,7.49
2018-12-30T01:18:53.864Z,7.46
2018-12-30T01:22:07.522Z,7.46
2018-12-30T01:25:30.019Z,7.49
2018-12-30T01:28:46.054Z,7.44
2018-12-30T01:32:02.034Z,7.45
2018-12-30T01:35:24.431Z,7.46
2018-12-30T01:38:39.621Z,7.45
2018-12-30T01:41:55.053Z,6.92
2018-12-30T01:45:17.440Z,7.40
2018-12-30T01:48:32.869Z,7.37
2018-12-30T01:51:55.861Z,7.46
2018-12-30T01:55:11.145Z,7.41
2018-12-30T01:58:34.262Z,7.39
2018-12-30T02:02:11.378Z,6.83
2018-12-30T02:05:33.756Z,7.37
2018-12-30T02:08:49.537Z,7.03
2018-12-30T02:12:12.599Z,7.32
2018-12-30T02:15:35.062Z,7.35
2018-12-30T02:18:57.459Z,6.91
2018-12-30T02:22:21.462Z,7.31
2018-12-30T02:25:44.045Z,6.71
2018-12-30T02:29:21.600Z,7.35
2018-12-30T02:32:37.586Z,7.21
2018-12-30T02:35:52.701Z,7.31
2018-12-30T02:39:09.202Z,7.34
2018-12-30T02:42:31.906Z,7.44
2018-12-30T02:45:47.560Z,7.46
2018-12-30T02:49:03.005Z,7.38
2018-12-30T02:52:26.062Z,7.43
2018-12-30T02:55:41.373Z,7.43
2018-12-30T02:59:03.767Z,7.51
2018-12-30T03:02:19.948Z,7.49
2018-12-30T03:05:42.456Z,7.17
2018-12-30T03:08:58.436Z,7.43
2018-12-30T03:12:21.104Z,7.48
2018-12-30T03:15:37.294Z,7.44
2018-12-30T03:18:59.997Z,7.44
2018-12-30T03:22:15.329Z,7.48
2018-12-30T03:25:37.844Z,6.89
2018-12-30T03:28:53.260Z,7.44
2018-12-30T03:32:09.250Z,7.46
2018-12-30T03:35:24.669Z,7.45
2018-12-30T03:38:47.364Z,7.42
2018-12-30T03:42:03.204Z,7.35
2018-12-30T03:45:25.937Z,7.47
2018-12-30T03:48:41.861Z,7.44
2018-12-30T03:51:57.707Z,7.08
2018-12-30T03:55:20.402Z,7.50
2018-12-30T03:58:36.461Z,6.98
2018-12-30T04:01:59.077Z,7.31
2018-12-30T04:05:15.488Z,7.44
2018-12-30T04:08:37.871Z,7.42
2018-12-30T04:11:52.959Z,7.43
2018-12-30T04:15:16.356Z,6.84
2018-12-30T04:18:31.614Z,7.51
2018-12-30T04:21:54.040Z,7.43
2018-12-30T04:25:09.974Z,7.47
2018-12-30T04:28:32.394Z,6.91
2018-12-30T04:31:48.120Z,7.47
2018-12-30T04:35:04.552Z,7.46
2018-12-30T04:38:19.806Z,7.48
2018-12-30T04:41:42.478Z,6.97
2018-12-30T04:44:58.324Z,7.43
2018-12-30T04:48:13.715Z,7.39
2018-12-30T04:51:36.375Z,7.47
2018-12-30T04:54:52.374Z,7.52
2018-12-30T04:58:15.058Z,7.53
2018-12-30T05:01:30.911Z,7.35
2018-12-30T05:04:53.664Z,7.49
2018-12-30T05:08:09.160Z,7.47
2018-12-30T05:11:32.143Z,7.45
2018-12-30T05:14:47.303Z,7.44
2018-12-30T05:18:09.702Z,7.02
2018-12-30T05:21:25.250Z,7.47
2018-12-30T05:24:47.634Z,7.51
2018-12-30T05:28:03.635Z,7.25
2018-12-30T05:31:18.929Z,7.51
2018-12-30T05:34:34.340Z,7.51
2018-12-30T05:37:57.107Z,7.45
2018-12-30T05:41:12.759Z,7.43
2018-12-30T05:44:29.000Z,7.47
2018-12-30T05:47:51.411Z,7.42
2018-12-30T05:51:06.890Z,7.44
2018-12-30T05:54:29.911Z,7.42
2018-12-30T05:57:45.565Z,7.42
2018-12-30T06:01:08.580Z,7.46
2018-12-30T06:04:23.960Z,7.49
2018-12-30T06:07:46.394Z,7.42
2018-12-30T06:11:01.612Z,7.17
2018-12-30T06:14:24.298Z,7.46
2018-12-30T06:17:40.071Z,7.43
2018-12-30T06:21:02.476Z,7.44
2018-12-30T06:24:17.843Z,7.47
2018-12-30T06:27:40.580Z,7.42
2018-12-30T06:30:56.201Z,7.43
2018-12-30T06:34:11.452Z,7.33
2018-12-30T06:37:34.547Z,6.96
2018-12-30T06:40:49.827Z,6.92
2018-12-30T06:44:04.900Z,7.41
2018-12-30T06:47:19.951Z,7.45
2018-12-30T06:50:42.984Z,7.40
2018-12-30T06:58:26.337Z,7.43
2018-12-30T07:01:41.389Z,7.43
2018-12-30T07:04:56.526Z,7.02
2018-12-30T07:08:11.831Z,7.42
2018-12-30T07:11:34.517Z,7.48
2018-12-30T07:14:50.057Z,7.46
2018-12-30T07:18:12.482Z,7.39
2018-12-30T07:21:28.011Z,7.46
2018-12-30T07:24:43.101Z,7.45
2018-12-30T07:28:05.805Z,7.48
2018-12-30T07:31:21.912Z,7.30
2018-12-30T07:34:36.981Z,7.48
2018-12-30T07:37:52.481Z,7.47
2018-12-30T07:41:14.873Z,6.90
2018-12-30T07:44:31.040Z,7.47
2018-12-30T07:47:53.417Z,6.98
2018-12-30T07:51:09.332Z,7.45
2018-12-30T07:54:32.596Z,7.48
2018-12-30T07:57:48.501Z,7.47
2018-12-30T08:01:04.028Z,7.51
2018-12-30T08:04:27.148Z,7.48
2018-12-30T08:07:43.437Z,7.48
2018-12-30T08:11:06.137Z,7.40
2018-12-30T08:14:22.379Z,7.45
2018-12-30T08:17:44.752Z,6.90
2018-12-30T08:21:00.192Z,7.44
2018-12-30T08:24:23.197Z,7.47
2018-12-30T08:27:38.738Z,7.49
2018-12-30T08:31:01.133Z,7.51
2018-12-30T08:34:17.341Z,7.55
2018-12-30T08:37:39.757Z,7.47
2018-12-30T08:40:55.413Z,7.49
2018-12-30T08:44:17.793Z,7.56
2018-12-30T08:47:33.208Z,7.47
2018-12-30T08:50:55.919Z,7.46
2018-12-30T08:54:12.141Z,7.52
2018-12-30T08:57:34.533Z,7.47
2018-12-30T09:00:50.756Z,7.33
2018-12-30T09:04:13.146Z,7.53
2018-12-30T09:07:28.209Z,7.32
2018-12-30T09:10:51.265Z,7.61
2018-12-30T09:14:06.633Z,7.34
2018-12-30T09:17:29.029Z,7.71
2018-12-30T09:20:44.231Z,7.53
2018-12-30T09:23:59.488Z,7.75
2018-12-30T09:27:22.200Z,7.86
2018-12-30T09:30:37.198Z,7.75
2018-12-30T09:33:52.597Z,7.68
2018-12-30T09:37:15.250Z,7.73
2018-12-30T09:40:29.047Z,7.63
2018-12-30T09:43:51.433Z,7.72
2018-12-30T09:47:09.268Z,7.41
2018-12-30T09:50:24.888Z,7.93
2018-12-30T09:53:47.277Z,8.16
2018-12-30T09:57:02.834Z,8.22
2018-12-30T10:00:18.474Z,8.09
2018-12-30T10:03:41.548Z,7.83
2018-12-30T10:06:56.976Z,7.72
2018-12-30T10:10:19.388Z,7.83
2018-12-30T10:13:34.857Z,8.02
2018-12-30T10:16:57.507Z,7.82
2018-12-30T10:20:12.958Z,7.82
2018-12-30T10:23:36.649Z,7.37
2018-12-30T10:26:52.521Z,7.87
2018-12-30T10:30:15.482Z,7.81
2018-12-30T10:33:33.043Z,7.89
2018-12-30T10:36:55.884Z,7.69
2018-12-30T10:40:11.320Z,7.86
2018-12-30T10:47:29.667Z,7.94
2018-12-30T10:50:45.763Z,7.99
2018-12-30T10:54:08.151Z,7.84
2018-12-30T10:57:23.421Z,7.89
2018-12-30T11:00:45.847Z,7.86
2018-12-30T11:04:01.918Z,8.08
2018-12-30T11:07:18.982Z,7.92
2018-12-30T11:10:41.757Z,7.81
2018-12-30T11:13:57.651Z,7.55
2018-12-30T11:17:20.051Z,8.09
2018-12-30T11:20:35.073Z,8.08
2018-12-30T11:23:58.231Z,8.08
2018-12-30T11:27:14.330Z,7.61
2018-12-30T11:30:37.055Z,8.10
2018-12-30T11:33:52.613Z,7.77
2018-12-30T11:37:15.079Z,8.13
2018-12-30T11:40:30.180Z,8.12
2018-12-30T11:43:52.585Z,8.13
2018-12-30T11:47:08.027Z,8.10
2018-12-30T11:50:30.749Z,8.10
2018-12-30T11:53:46.497Z,7.95
2018-12-30T11:57:09.184Z,8.05
2018-12-30T12:00:25.010Z,7.97
2018-12-30T12:03:47.401Z,7.99
2018-12-30T12:07:02.570Z,7.84
2018-12-30T12:10:24.959Z,8.00
2018-12-30T12:13:40.417Z,7.96
2018-12-30T12:17:03.172Z,7.77
2018-12-30T12:20:18.833Z,8.05
2018-12-30T12:23:41.217Z,7.83
2018-12-30T12:26:57.104Z,8.13
2018-12-30T12:30:12.530Z,7.95
2018-12-30T12:33:27.741Z,7.96
2018-12-30T12:36:42.929Z,8.03
2018-12-30T12:39:58.153Z,8.08
2018-12-30T12:43:20.548Z,7.69
2018-12-30T12:46:35.988Z,7.96
2018-12-30T12:49:58.752Z,7.96
2018-12-30T12:53:14.346Z,7.99
2018-12-30T12:56:36.739Z,7.96
2018-12-30T12:59:52.048Z,7.91
2018-12-30T13:03:14.421Z,7.96
2018-12-30T13:06:29.523Z,7.91
2018-12-30T13:09:51.901Z,8.04
2018-12-30T13:13:07.857Z,8.10
2018-12-30T13:16:30.262Z,8.16
2018-12-30T13:19:46.025Z,8.02
2018-12-30T13:23:08.744Z,7.99
2018-12-30T13:26:23.984Z,8.00
2018-12-30T13:29:46.382Z,8.11
2018-12-30T13:33:01.863Z,8.18
2018-12-30T13:36:24.630Z,7.81
2018-12-30T13:39:40.399Z,7.71
2018-12-30T13:43:03.090Z,8.10
2018-12-30T13:46:18.260Z,8.01
2018-12-30T13:49:33.573Z,8.27
2018-12-30T13:52:56.303Z,8.17
2018-12-30T13:56:11.594Z,8.08
2018-12-30T13:59:26.966Z,8.08
2018-12-30T14:02:49.411Z,7.97
2018-12-30T14:06:04.374Z,7.96
2018-12-30T14:09:19.717Z,7.90
2018-12-30T14:12:42.108Z,7.92
2018-12-30T14:15:57.583Z,7.57
2018-12-30T14:19:13.461Z,7.94
2018-12-30T14:22:35.826Z,7.62
2018-12-30T14:25:51.071Z,7.92
2018-12-30T14:29:14.113Z,7.81
2018-12-30T14:32:31.409Z,7.89
2018-12-30T14:35:47.124Z,7.94
2018-12-30T14:39:10.181Z,7.87
2018-12-30T14:42:25.949Z,7.76
2018-12-30T14:45:41.023Z,7.79
2018-12-30T14:49:03.728Z,7.79
2018-12-30T14:52:20.066Z,7.45
2018-12-30T14:55:42.481Z,7.76
2018-12-30T14:58:58.600Z,7.53
2018-12-30T15:02:20.992Z,7.76
2018-12-30T15:05:36.942Z,7.64
2018-12-30T15:08:40.560Z,7.63
2018-12-30T15:11:57.308Z,7.62
2018-12-30T15:15:20.004Z,7.39
2018-12-30T15:18:35.813Z,7.62
2018-12-30T15:21:51.149Z,7.56
2018-12-30T15:25:13.927Z,7.57
2018-12-30T15:28:29.809Z,7.64
2018-12-30T15:31:33.088Z,7.49
2018-12-30T15:34:48.478Z,7.54
2018-12-30T15:38:10.887Z,7.57
2018-12-30T15:41:26.665Z,7.59
2018-12-30T15:44:49.038Z,7.56
2018-12-30T15:48:04.057Z,7.61
2018-12-30T15:51:26.442Z,7.62
2018-12-30T15:54:41.551Z,7.27
2018-12-30T15:57:57.154Z,7.53
2018-12-30T16:01:00.072Z,7.50
2018-12-30T16:04:15.541Z,7.52
2018-12-30T16:07:37.916Z,7.60
2018-12-30T16:10:53.449Z,7.57
2018-12-30T16:14:09.320Z,7.53
2018-12-30T16:17:31.992Z,7.08
2018-12-30T16:20:47.296Z,7.42
2018-12-30T16:24:09.683Z,7.54
2018-12-30T16:27:25.079Z,7.54
2018-12-30T16:30:47.476Z,7.46
2018-12-30T16:34:02.748Z,7.56
2018-12-30T16:37:26.435Z,7.51
2018-12-30T16:40:42.709Z,7.54
2018-12-30T16:44:05.095Z,7.48
2018-12-30T16:47:21.043Z,7.51
2018-12-30T16:50:36.377Z,7.42
2018-12-30T16:53:58.751Z,7.53
2018-12-30T16:57:14.393Z,8.47
2018-12-30T17:00:36.780Z,7.59
2018-12-30T17:03:52.114Z,7.66
2018-12-30T17:07:07.438Z,7.45
2018-12-30T17:10:29.818Z,7.54
2018-12-30T17:13:45.739Z,7.54
2018-12-30T17:17:08.202Z,7.43
2018-12-30T17:20:24.420Z,7.43
2018-12-30T17:23:47.094Z,7.39
2018-12-30T17:27:02.754Z,7.48
2018-12-30T17:30:25.441Z,7.46
2018-12-30T17:33:41.312Z,7.48
2018-12-30T17:37:03.707Z,7.07
2018-12-30T17:40:19.930Z,7.52
2018-12-30T17:43:42.421Z,7.55
2018-12-30T17:46:58.455Z,7.49
2018-12-30T17:50:13.588Z,7.47
2018-12-30T17:53:35.985Z,7.43
2018-12-30T17:56:51.613Z,7.48
2018-12-30T18:00:07.170Z,7.23
2018-12-30T18:03:30.461Z,7.51
2018-12-30T18:06:46.705Z,7.08
2018-12-30T18:10:02.622Z,7.42
2018-12-30T18:13:25.405Z,7.20
2018-12-30T18:16:40.870Z,7.43
2018-12-30T18:20:03.497Z,7.51
2018-12-30T18:23:19.285Z,7.45
2018-12-30T18:26:41.661Z,7.48
2018-12-30T18:29:56.717Z,7.39
2018-12-30T18:33:11.964Z,7.51
2018-12-30T18:36:27.491Z,7.55
2018-12-30T18:39:50.247Z,7.21
2018-12-30T18:43:05.656Z,7.49
2018-12-30T18:46:20.778Z,7.51
2018-12-30T18:49:43.970Z,7.49
2018-12-30T18:52:59.705Z,7.57
2018-12-30T18:56:22.119Z,7.53
2018-12-30T18:59:38.321Z,7.53
2018-12-30T19:03:00.817Z,7.50
2018-12-30T19:06:16.250Z,7.44
2018-12-30T19:09:38.993Z,7.50
2018-12-30T19:12:54.817Z,7.52
2018-12-30T19:16:17.318Z,7.55
2018-12-30T19:19:33.253Z,7.38
2018-12-30T19:22:36.211Z,7.60
2018-12-30T19:25:40.001Z,7.68
2018-12-30T19:28:42.901Z,7.66
2018-12-30T19:31:45.829Z,7.64
2018-12-30T19:34:48.748Z,7.65
2018-12-30T19:37:51.658Z,7.62
2018-12-30T19:40:54.563Z,7.66
2018-12-30T19:43:57.515Z,7.66
2018-12-30T19:47:00.432Z,7.68
2018-12-30T19:50:03.538Z,7.67
2018-12-30T19:53:06.484Z,7.67
2018-12-30T19:56:09.384Z,7.69
2018-12-30T19:59:13.016Z,7.65
2018-12-30T20:02:15.918Z,7.70
2018-12-30T20:05:18.862Z,7.66
2018-12-30T20:08:21.864Z,7.69
2018-12-30T20:11:24.767Z,7.68
2018-12-30T20:14:28.028Z,7.70
2018-12-30T20:17:31.338Z,7.71
2018-12-30T20:20:34.934Z,7.68
2018-12-30T20:23:37.942Z,7.68
2018-12-30T20:26:41.242Z,7.67
2018-12-30T20:29:44.570Z,7.73
2018-12-30T20:32:47.488Z,7.71
2018-12-30T20:35:50.554Z,7.80
2018-12-30T20:38:53.791Z,7.73
2018-12-30T20:41:56.720Z,7.74
2018-12-30T20:44:59.663Z,7.73
2018-12-30T20:48:02.849Z,7.71
2018-12-30T20:51:05.773Z,7.77
2018-12-30T20:54:09.081Z,7.77
2018-12-30T20:57:12.345Z,7.78
2018-12-30T21:00:15.610Z,7.82
2018-12-30T21:03:19.464Z,7.75
2018-12-30T21:06:22.395Z,7.80
2018-12-30T21:09:26.350Z,7.83
2018-12-30T21:12:29.278Z,7.81
2018-12-30T21:15:32.217Z,7.82
2018-12-30T21:18:35.439Z,7.86
2018-12-30T21:21:38.359Z,7.86
2018-12-30T21:24:41.428Z,7.86
2018-12-30T21:27:45.759Z,7.81
2018-12-30T21:30:48.664Z,7.86
2018-12-30T21:33:51.899Z,7.83
2018-12-30T21:36:54.913Z,7.86
2018-12-30T21:39:58.095Z,7.90
2018-12-30T21:43:01.330Z,7.86
2018-12-30T21:46:04.570Z,7.82
2018-12-30T21:49:07.590Z,7.85
2018-12-30T21:52:10.949Z,7.84
2018-12-30T21:55:15.778Z,7.90
2018-12-30T21:58:18.696Z,7.88
2018-12-30T22:01:21.606Z,7.98
2018-12-30T22:04:24.634Z,7.90
2018-12-30T22:07:28.253Z,7.89
2018-12-30T22:10:31.178Z,7.88
2018-12-30T22:13:34.112Z,7.87
2018-12-30T22:16:37.026Z,7.88
2018-12-30T22:19:39.975Z,7.88
2018-12-30T22:22:43.199Z,7.88
2018-12-30T22:25:46.158Z,7.91
2018-12-30T22:28:49.392Z,8.14
2018-12-30T22:31:52.678Z,8.39
2018-12-30T22:34:55.587Z,8.06
2018-12-30T22:37:58.508Z,7.97
2018-12-30T22:41:01.504Z,7.99
2018-12-30T22:44:04.840Z,7.96
2018-12-30T22:47:07.762Z,7.94
2018-12-30T22:50:11.053Z,7.96
2018-12-30T22:53:14.311Z,7.92
2018-12-30T22:56:17.604Z,7.97
2018-12-30T22:59:20.515Z,7.96
2018-12-30T23:02:24.098Z,7.96
2018-12-30T23:05:28.476Z,7.96
2018-12-30T23:08:31.391Z,8.00
2018-12-30T23:11:34.303Z,7.96
2018-12-30T23:14:37.642Z,7.95
2018-12-30T23:17:40.563Z,7.96
2018-12-30T23:20:43.890Z,7.94
2018-12-30T23:23:46.825Z,7.93
2018-12-30T23:26:50.136Z,7.96
2018-12-30T23:29:53.494Z,7.96
2018-12-30T23:32:56.512Z,7.96
2018-12-30T23:35:59.805Z,8.01
2018-12-30T23:39:05.074Z,7.96
2018-12-30T23:42:09.084Z,7.98
2018-12-30T23:45:12.695Z,7.99
2018-12-30T23:48:15.899Z,8.01
2018-12-30T23:51:18.842Z,8.07
2018-12-30T23:54:21.777Z,8.12
2018-12-30T23:57:24.692Z,8.08
